sensor_id;sensor_type;location;lat;lon;timestamp;pressure;altitude;pressure_sealevel;temperature;humidity
77247;BME280;66279;42.820;23.374;2023-11-19T00:02:15;95638.16;;;13.34;53.59
77247;BME280;66279;42.820;23.374;2023-11-19T00:04:40;95641.97;;;13.39;53.54
77247;BME280;66279;42.820;23.374;2023-11-19T00:07:06;95645.19;;;13.59;53.09
77247;BME280;66279;42.820;23.374;2023-11-19T00:09:34;95650.81;;;13.51;53.33
77247;BME280;66279;42.820;23.374;2023-11-19T00:12:03;95656.56;;;13.48;53.42
77247;BME280;66279;42.820;23.374;2023-11-19T00:14:29;95648.88;;;13.28;54.27
77247;BME280;66279;42.820;23.374;2023-11-19T00:16:55;95643.59;;;13.40;53.77
77247;BME280;66279;42.820;23.374;2023-11-19T00:19:20;95638.69;;;13.25;53.94
77247;BME280;66279;42.820;23.374;2023-11-19T00:21:46;95647.75;;;13.35;53.98
77247;BME280;66279;42.820;23.374;2023-11-19T00:24:12;95653.56;;;13.44;53.70
77247;BME280;66279;42.820;23.374;2023-11-19T00:26:38;95651.28;;;13.29;54.18
77247;BME280;66279;42.820;23.374;2023-11-19T00:29:04;95650.94;;;13.26;54.68
77247;BME280;66279;42.820;23.374;2023-11-19T00:31:29;95653.28;;;13.16;55.13
77247;BME280;66279;42.820;23.374;2023-11-19T00:33:55;95659.78;;;13.20;54.53
77247;BME280;66279;42.820;23.374;2023-11-19T00:36:20;95665.09;;;13.01;55.20
77247;BME280;66279;42.820;23.374;2023-11-19T00:38:46;95672.50;;;12.99;55.13
77247;BME280;66279;42.820;23.374;2023-11-19T00:41:11;95679.81;;;12.85;55.65
77247;BME280;66279;42.820;23.374;2023-11-19T00:43:37;95679.06;;;12.60;56.03
77247;BME280;66279;42.820;23.374;2023-11-19T00:46:03;95685.53;;;12.64;56.67
77247;BME280;66279;42.820;23.374;2023-11-19T00:48:28;95679.78;;;12.49;56.88
77247;BME280;66279;42.820;23.374;2023-11-19T00:50:54;95683.72;;;12.39;56.82
77247;BME280;66279;42.820;23.374;2023-11-19T00:53:19;95685.22;;;12.35;57.26
77247;BME280;66279;42.820;23.374;2023-11-19T00:55:44;95685.22;;;12.35;57.26
77247;BME280;66279;42.820;23.374;2023-11-19T00:58:10;95691.75;;;12.33;57.09
77247;BME280;66279;42.820;23.374;2023-11-19T01:00:35;95695.88;;;12.29;57.33
77247;BME280;66279;42.820;23.374;2023-11-19T01:03:01;95684.06;;;12.25;57.31
77247;BME280;66279;42.820;23.374;2023-11-19T01:05:26;95694.56;;;12.13;57.34
77247;BME280;66279;42.820;23.374;2023-11-19T01:07:53;95698.56;;;11.97;58.30
77247;BME280;66279;42.820;23.374;2023-11-19T01:10:19;95698.75;;;12.02;58.23
77247;BME280;66279;42.820;23.374;2023-11-19T01:12:45;95699.66;;;11.83;58.79
77247;BME280;66279;42.820;23.374;2023-11-19T01:15:11;95699.34;;;12.04;58.31
77247;BME280;66279;42.820;23.374;2023-11-19T01:17:37;95700.66;;;11.88;58.95
77247;BME280;66279;42.820;23.374;2023-11-19T01:20:03;95677.03;;;11.80;58.71
77247;BME280;66279;42.820;23.374;2023-11-19T01:22:31;95691.09;;;11.87;58.51
77247;BME280;66279;42.820;23.374;2023-11-19T01:24:57;95692.56;;;11.77;59.02
77247;BME280;66279;42.820;23.374;2023-11-19T01:27:26;95692.63;;;11.70;59.15
77247;BME280;66279;42.820;23.374;2023-11-19T01:29:51;95692.94;;;11.87;58.81
77247;BME280;66279;42.820;23.374;2023-11-19T01:32:17;95692.34;;;11.78;59.18
77247;BME280;66279;42.820;23.374;2023-11-19T01:34:42;95701.81;;;11.67;59.39
77247;BME280;66279;42.820;23.374;2023-11-19T01:37:07;95703.66;;;11.67;59.28
77247;BME280;66279;42.820;23.374;2023-11-19T01:39:37;95693.81;;;11.74;58.82
77247;BME280;66279;42.820;23.374;2023-11-19T01:42:03;95715.09;;;11.61;59.54
77247;BME280;66279;42.820;23.374;2023-11-19T01:44:29;95706.50;;;11.65;59.28
77247;BME280;66279;42.820;23.374;2023-11-19T01:46:54;95712.03;;;11.64;59.32
77247;BME280;66279;42.820;23.374;2023-11-19T01:49:19;95710.53;;;11.74;59.11
77247;BME280;66279;42.820;23.374;2023-11-19T01:51:46;95720.72;;;11.78;59.37
77247;BME280;66279;42.820;23.374;2023-11-19T01:54:12;95717.88;;;11.72;59.57
77247;BME280;66279;42.820;23.374;2023-11-19T01:56:38;95708.53;;;11.70;59.82
77247;BME280;66279;42.820;23.374;2023-11-19T01:59:09;95725.06;;;11.65;59.58
77247;BME280;66279;42.820;23.374;2023-11-19T02:01:36;95708.97;;;11.67;59.62
77247;BME280;66279;42.820;23.374;2023-11-19T02:04:06;95714.75;;;11.82;59.64
77247;BME280;66279;42.820;23.374;2023-11-19T02:06:33;95706.88;;;11.69;59.61
77247;BME280;66279;42.820;23.374;2023-11-19T02:09:00;95713.69;;;11.58;59.91
77247;BME280;66279;42.820;23.374;2023-11-19T02:11:26;95708.66;;;11.43;60.52
77247;BME280;66279;42.820;23.374;2023-11-19T02:13:55;95696.41;;;11.49;59.95
77247;BME280;66279;42.820;23.374;2023-11-19T02:16:21;95701.41;;;11.25;61.01
77247;BME280;66279;42.820;23.374;2023-11-19T02:18:46;95699.09;;;11.36;60.61
77247;BME280;66279;42.820;23.374;2023-11-19T02:21:12;95699.59;;;11.64;60.14
77247;BME280;66279;42.820;23.374;2023-11-19T02:23:40;95705.34;;;11.48;60.68
77247;BME280;66279;42.820;23.374;2023-11-19T02:26:26;95702.28;;;11.58;59.97
77247;BME280;66279;42.820;23.374;2023-11-19T02:28:54;95699.00;;;11.56;59.78
77247;BME280;66279;42.820;23.374;2023-11-19T02:31:19;95697.25;;;11.43;60.37
77247;BME280;66279;42.820;23.374;2023-11-19T02:33:45;95683.19;;;11.36;60.65
77247;BME280;66279;42.820;23.374;2023-11-19T02:36:11;95680.34;;;11.37;60.25
77247;BME280;66279;42.820;23.374;2023-11-19T02:38:36;95687.44;;;11.43;60.42
77247;BME280;66279;42.820;23.374;2023-11-19T02:41:06;95679.56;;;11.30;60.37
77247;BME280;66279;42.820;23.374;2023-11-19T02:43:36;95676.47;;;11.40;60.08
77247;BME280;66279;42.820;23.374;2023-11-19T02:46:03;95680.38;;;11.31;60.18
77247;BME280;66279;42.820;23.374;2023-11-19T02:48:33;95692.75;;;11.43;60.22
77247;BME280;66279;42.820;23.374;2023-11-19T02:51:00;95696.22;;;11.44;60.16
77247;BME280;66279;42.820;23.374;2023-11-19T02:53:26;95685.09;;;11.22;60.98
77247;BME280;66279;42.820;23.374;2023-11-19T02:55:54;95681.72;;;11.46;60.11
77247;BME280;66279;42.820;23.374;2023-11-19T02:58:26;95675.66;;;11.39;60.25
77247;BME280;66279;42.820;23.374;2023-11-19T03:00:53;95675.13;;;11.17;60.32
77247;BME280;66279;42.820;23.374;2023-11-19T03:03:27;95694.78;;;11.41;60.29
77247;BME280;66279;42.820;23.374;2023-11-19T03:06:04;95689.91;;;11.38;60.39
77247;BME280;66279;42.820;23.374;2023-11-19T03:08:30;95686.56;;;11.18;60.95
77247;BME280;66279;42.820;23.374;2023-11-19T03:10:55;95700.75;;;11.37;60.57
77247;BME280;66279;42.820;23.374;2023-11-19T03:13:21;95714.03;;;11.30;60.75
77247;BME280;66279;42.820;23.374;2023-11-19T03:15:47;95709.16;;;11.27;60.90
77247;BME280;66279;42.820;23.374;2023-11-19T03:18:13;95709.16;;;11.27;60.51
77247;BME280;66279;42.820;23.374;2023-11-19T03:20:38;95709.28;;;11.39;60.38
77247;BME280;66279;42.820;23.374;2023-11-19T03:23:03;95713.44;;;11.21;60.58
77247;BME280;66279;42.820;23.374;2023-11-19T03:25:29;95700.03;;;11.10;61.15
77247;BME280;66279;42.820;23.374;2023-11-19T03:28:02;95710.84;;;11.15;61.00
77247;BME280;66279;42.820;23.374;2023-11-19T03:30:29;95707.75;;;11.18;60.96
77247;BME280;66279;42.820;23.374;2023-11-19T03:32:56;95707.91;;;11.29;60.62
77247;BME280;66279;42.820;23.374;2023-11-19T03:35:22;95704.25;;;11.31;60.46
77247;BME280;66279;42.820;23.374;2023-11-19T03:37:47;95714.16;;;11.48;60.22
77247;BME280;66279;42.820;23.374;2023-11-19T03:40:13;95714.19;;;11.35;60.39
77247;BME280;66279;42.820;23.374;2023-11-19T03:42:40;95711.38;;;11.23;60.89
77247;BME280;66279;42.820;23.374;2023-11-19T03:45:06;95725.31;;;11.12;60.91
77247;BME280;66279;42.820;23.374;2023-11-19T03:47:34;95727.03;;;11.38;60.02
77247;BME280;66279;42.820;23.374;2023-11-19T03:49:59;95724.03;;;11.28;60.52
77247;BME280;66279;42.820;23.374;2023-11-19T03:52:25;95743.53;;;11.40;60.21
77247;BME280;66279;42.820;23.374;2023-11-19T03:54:52;95737.09;;;11.23;60.51
77247;BME280;66279;42.820;23.374;2023-11-19T03:57:18;95724.63;;;11.23;60.14
77247;BME280;66279;42.820;23.374;2023-11-19T03:59:44;95724.88;;;11.15;60.35
77247;BME280;66279;42.820;23.374;2023-11-19T04:02:10;95727.75;;;11.07;60.53
77247;BME280;66279;42.820;23.374;2023-11-19T04:04:35;95724.09;;;11.15;60.13
77247;BME280;66279;42.820;23.374;2023-11-19T04:07:01;95736.91;;;11.11;60.20
77247;BME280;66279;42.820;23.374;2023-11-19T04:09:28;95732.41;;;11.18;59.79
77247;BME280;66279;42.820;23.374;2023-11-19T04:11:54;95718.44;;;10.91;60.55
77247;BME280;66279;42.820;23.374;2023-11-19T04:14:19;95740.41;;;10.98;60.87
77247;BME280;66279;42.820;23.374;2023-11-19T04:16:45;95737.75;;;10.98;60.93
77247;BME280;66279;42.820;23.374;2023-11-19T04:19:11;95731.88;;;10.96;60.76
77247;BME280;66279;42.820;23.374;2023-11-19T04:21:36;95744.88;;;11.04;60.87
77247;BME280;66279;42.820;23.374;2023-11-19T04:24:02;95740.81;;;11.02;60.34
77247;BME280;66279;42.820;23.374;2023-11-19T04:26:27;95748.34;;;11.05;60.63
77247;BME280;66279;42.820;23.374;2023-11-19T04:28:53;95750.56;;;11.08;60.43
77247;BME280;66279;42.820;23.374;2023-11-19T04:31:18;95747.38;;;10.99;60.33
77247;BME280;66279;42.820;23.374;2023-11-19T04:33:44;95738.41;;;10.80;60.94
77247;BME280;66279;42.820;23.374;2023-11-19T04:36:10;95747.38;;;10.86;60.93
77247;BME280;66279;42.820;23.374;2023-11-19T04:38:35;95758.63;;;10.75;61.42
77247;BME280;66279;42.820;23.374;2023-11-19T04:41:01;95754.13;;;10.82;61.53
77247;BME280;66279;42.820;23.374;2023-11-19T04:43:26;95735.19;;;10.72;61.80
77247;BME280;66279;42.820;23.374;2023-11-19T04:45:52;95740.84;;;10.89;61.57
77247;BME280;66279;42.820;23.374;2023-11-19T04:48:17;95747.94;;;11.01;60.72
77247;BME280;66279;42.820;23.374;2023-11-19T04:50:43;95748.38;;;10.98;60.77
77247;BME280;66279;42.820;23.374;2023-11-19T04:53:08;95744.28;;;11.02;60.48
77247;BME280;66279;42.820;23.374;2023-11-19T04:55:33;95752.84;;;10.98;60.82
77247;BME280;66279;42.820;23.374;2023-11-19T04:57:59;95754.31;;;10.94;60.80
77247;BME280;66279;42.820;23.374;2023-11-19T05:00:24;95761.03;;;10.83;61.23
77247;BME280;66279;42.820;23.374;2023-11-19T05:02:51;95770.38;;;10.92;61.15
77247;BME280;66279;42.820;23.374;2023-11-19T05:05:16;95783.44;;;10.94;60.63
77247;BME280;66279;42.820;23.374;2023-11-19T05:07:42;95789.56;;;10.81;61.43
77247;BME280;66279;42.820;23.374;2023-11-19T05:10:08;95793.03;;;10.81;61.53
77247;BME280;66279;42.820;23.374;2023-11-19T05:12:33;95793.19;;;11.06;60.53
77247;BME280;66279;42.820;23.374;2023-11-19T05:15:00;95782.00;;;10.98;60.63
77247;BME280;66279;42.820;23.374;2023-11-19T05:17:25;95778.31;;;10.99;60.60
77247;BME280;66279;42.820;23.374;2023-11-19T05:19:51;95781.97;;;11.04;60.59
77247;BME280;66279;42.820;23.374;2023-11-19T05:22:17;95776.44;;;11.19;60.49
77247;BME280;66279;42.820;23.374;2023-11-19T05:24:42;95771.59;;;10.90;61.22
77247;BME280;66279;42.820;23.374;2023-11-19T05:27:08;95773.03;;;10.92;60.70
77247;BME280;66279;42.820;23.374;2023-11-19T05:29:33;95781.41;;;10.76;61.32
77247;BME280;66279;42.820;23.374;2023-11-19T05:31:59;95785.69;;;10.83;61.50
77247;BME280;66279;42.820;23.374;2023-11-19T05:34:24;95789.94;;;10.98;60.97
77247;BME280;66279;42.820;23.374;2023-11-19T05:36:50;95784.84;;;11.03;60.41
77247;BME280;66279;42.820;23.374;2023-11-19T05:39:16;95795.06;;;10.86;61.20
77247;BME280;66279;42.820;23.374;2023-11-19T05:41:42;95800.72;;;11.10;60.39
77247;BME280;66279;42.820;23.374;2023-11-19T05:44:07;95801.97;;;11.00;60.47
77247;BME280;66279;42.820;23.374;2023-11-19T05:46:33;95816.44;;;10.91;60.63
77247;BME280;66279;42.820;23.374;2023-11-19T05:48:59;95804.41;;;10.95;60.47
77247;BME280;66279;42.820;23.374;2023-11-19T05:51:25;95805.88;;;10.78;61.34
77247;BME280;66279;42.820;23.374;2023-11-19T05:53:50;95818.66;;;11.01;60.79
77247;BME280;66279;42.820;23.374;2023-11-19T05:56:16;95821.75;;;10.91;60.81
77247;BME280;66279;42.820;23.374;2023-11-19T05:58:46;95827.66;;;11.00;61.01
77247;BME280;66279;42.820;23.374;2023-11-19T06:01:14;95830.50;;;10.85;60.87
77247;BME280;66279;42.820;23.374;2023-11-19T06:03:39;95831.91;;;11.07;60.44
77247;BME280;66279;42.820;23.374;2023-11-19T06:06:05;95838.66;;;10.97;60.65
77247;BME280;66279;42.820;23.374;2023-11-19T06:08:32;95818.28;;;10.91;60.81
77247;BME280;66279;42.820;23.374;2023-11-19T06:10:57;95830.13;;;10.81;61.41
77247;BME280;66279;42.820;23.374;2023-11-19T06:13:23;95837.84;;;10.83;61.16
77247;BME280;66279;42.820;23.374;2023-11-19T06:15:49;95829.31;;;10.81;61.27
77247;BME280;66279;42.820;23.374;2023-11-19T06:18:16;95839.47;;;10.91;60.82
77247;BME280;66279;42.820;23.374;2023-11-19T06:20:41;95826.25;;;10.84;60.97
77247;BME280;66279;42.820;23.374;2023-11-19T06:23:07;95822.97;;;10.82;60.97
77247;BME280;66279;42.820;23.374;2023-11-19T06:25:32;95833.78;;;10.74;61.41
77247;BME280;66279;42.820;23.374;2023-11-19T06:28:00;95841.31;;;10.70;61.19
77247;BME280;66279;42.820;23.374;2023-11-19T06:30:25;95850.88;;;10.71;61.09
77247;BME280;66279;42.820;23.374;2023-11-19T06:32:53;95840.50;;;10.56;61.47
77247;BME280;66279;42.820;23.374;2023-11-19T06:35:18;95844.78;;;10.64;61.51
77247;BME280;66279;42.820;23.374;2023-11-19T06:37:44;95854.34;;;10.58;61.26
77247;BME280;66279;42.820;23.374;2023-11-19T06:40:10;95848.22;;;10.71;60.95
77247;BME280;66279;42.820;23.374;2023-11-19T06:42:35;95847.22;;;10.79;60.57
77247;BME280;66279;42.820;23.374;2023-11-19T06:45:01;95858.41;;;10.48;61.72
77247;BME280;66279;42.820;23.374;2023-11-19T06:47:27;95853.28;;;10.33;61.79
77247;BME280;66279;42.820;23.374;2023-11-19T06:49:53;95860.03;;;10.42;61.44
77247;BME280;66279;42.820;23.374;2023-11-19T06:52:19;95858.59;;;10.33;61.85
77247;BME280;66279;42.820;23.374;2023-11-19T06:54:44;95860.25;;;10.47;61.95
77247;BME280;66279;42.820;23.374;2023-11-19T06:57:11;95857.78;;;10.46;60.30
77247;BME280;66279;42.820;23.374;2023-11-19T06:59:37;95858.00;;;10.51;60.91
77247;BME280;66279;42.820;23.374;2023-11-19T07:02:02;95858.81;;;10.38;61.51
77247;BME280;66279;42.820;23.374;2023-11-19T07:04:28;95868.78;;;10.49;61.00
77247;BME280;66279;42.820;23.374;2023-11-19T07:06:53;95859.63;;;10.45;61.31
77247;BME280;66279;42.820;23.374;2023-11-19T07:09:19;95855.78;;;10.61;61.08
77247;BME280;66279;42.820;23.374;2023-11-19T07:11:44;95856.38;;;10.63;60.38
77247;BME280;66279;42.820;23.374;2023-11-19T07:14:11;95864.53;;;10.62;60.58
77247;BME280;66279;42.820;23.374;2023-11-19T07:16:38;95866.53;;;10.53;60.66
77247;BME280;66279;42.820;23.374;2023-11-19T07:19:07;95868.19;;;10.41;61.47
77247;BME280;66279;42.820;23.374;2023-11-19T07:21:32;95853.13;;;10.54;60.97
77247;BME280;66279;42.820;23.374;2023-11-19T07:23:58;95858.19;;;10.56;61.06
77247;BME280;66279;42.820;23.374;2023-11-19T07:26:24;95839.03;;;10.27;61.76
77247;BME280;66279;42.820;23.374;2023-11-19T07:28:50;95871.66;;;10.54;61.57
77247;BME280;66279;42.820;23.374;2023-11-19T07:31:16;95884.50;;;10.64;60.63
77247;BME280;66279;42.820;23.374;2023-11-19T07:33:45;95877.75;;;10.62;60.28
77247;BME280;66279;42.820;23.374;2023-11-19T07:36:11;95866.53;;;10.53;61.12
77247;BME280;66279;42.820;23.374;2023-11-19T07:38:37;95867.97;;;10.49;60.53
77247;BME280;66279;42.820;23.374;2023-11-19T07:41:02;95877.16;;;10.73;60.25
77247;BME280;66279;42.820;23.374;2023-11-19T07:43:28;95888.09;;;10.36;61.15
77247;BME280;66279;42.820;23.374;2023-11-19T07:45:53;95874.47;;;10.33;60.58
77247;BME280;66279;42.820;23.374;2023-11-19T07:48:19;95872.84;;;10.39;60.96
77247;BME280;66279;42.820;23.374;2023-11-19T07:50:52;95884.47;;;10.51;61.06
77247;BME280;66279;42.820;23.374;2023-11-19T07:53:18;95892.41;;;10.44;60.87
77247;BME280;66279;42.820;23.374;2023-11-19T07:55:44;95887.13;;;10.38;60.78
77247;BME280;66279;42.820;23.374;2023-11-19T07:58:10;95874.47;;;10.33;61.19
77247;BME280;66279;42.820;23.374;2023-11-19T08:00:36;95879.78;;;10.40;60.88
77247;BME280;66279;42.820;23.374;2023-11-19T08:03:03;95883.25;;;10.47;60.59
77247;BME280;66279;42.820;23.374;2023-11-19T08:05:28;95892.41;;;10.38;61.01
77247;BME280;66279;42.820;23.374;2023-11-19T08:07:53;95888.34;;;10.42;60.94
77247;BME280;66279;42.820;23.374;2023-11-19T08:10:19;95879.38;;;10.36;60.83
77247;BME280;66279;42.820;23.374;2023-11-19T08:12:45;95886.22;;;10.24;61.07
77247;BME280;66279;42.820;23.374;2023-11-19T08:15:10;95895.78;;;10.18;61.85
77247;BME280;66279;42.820;23.374;2023-11-19T08:17:37;95900.75;;;10.41;60.81
77247;BME280;66279;42.820;23.374;2023-11-19T08:20:03;95906.63;;;10.30;60.43
77247;BME280;66279;42.820;23.374;2023-11-19T08:22:30;95898.13;;;10.48;60.39
77247;BME280;66279;42.820;23.374;2023-11-19T08:24:55;95903.78;;;10.31;61.00
77247;BME280;66279;42.820;23.374;2023-11-19T08:27:21;95908.91;;;10.46;60.69
77247;BME280;66279;42.820;23.374;2023-11-19T08:29:55;95910.72;;;10.39;60.70
77247;BME280;66279;42.820;23.374;2023-11-19T08:32:24;95899.84;;;10.21;60.97
77247;BME280;66279;42.820;23.374;2023-11-19T08:34:50;95903.34;;;10.28;61.43
77247;BME280;66279;42.820;23.374;2023-11-19T08:37:15;95922.53;;;10.43;60.56
77247;BME280;66279;42.820;23.374;2023-11-19T08:39:43;95916.19;;;10.31;61.66
77247;BME280;66279;42.820;23.374;2023-11-19T08:42:09;95928.03;;;10.35;60.81
77247;BME280;66279;42.820;23.374;2023-11-19T08:44:34;95921.47;;;10.31;60.84
77247;BME280;66279;42.820;23.374;2023-11-19T08:46:59;95921.06;;;10.27;61.29
77247;BME280;66279;42.820;23.374;2023-11-19T08:49:25;95920.09;;;10.35;60.83
77247;BME280;66279;42.820;23.374;2023-11-19T08:51:51;95922.84;;;10.20;61.29
77247;BME280;66279;42.820;23.374;2023-11-19T08:54:16;95942.88;;;10.29;60.12
77247;BME280;66279;42.820;23.374;2023-11-19T08:56:41;95937.13;;;10.26;60.54
77247;BME280;66279;42.820;23.374;2023-11-19T08:59:07;95928.97;;;10.21;60.50
77247;BME280;66279;42.820;23.374;2023-11-19T09:01:33;95927.22;;;10.34;60.77
77247;BME280;66279;42.820;23.374;2023-11-19T09:03:59;95914.56;;;10.36;60.45
77247;BME280;66279;42.820;23.374;2023-11-19T09:06:24;95921.41;;;10.18;61.31
77247;BME280;66279;42.820;23.374;2023-11-19T09:08:50;95917.84;;;10.32;60.80
77247;BME280;66279;42.820;23.374;2023-11-19T09:11:16;95911.53;;;10.33;60.09
77247;BME280;66279;42.820;23.374;2023-11-19T09:13:41;95909.81;;;10.19;61.32
77247;BME280;66279;42.820;23.374;2023-11-19T09:16:07;95913.03;;;10.01;61.12
77247;BME280;66279;42.820;23.374;2023-11-19T09:18:34;95911.66;;;10.18;61.16
77247;BME280;66279;42.820;23.374;2023-11-19T09:21:00;95911.88;;;10.23;60.68
77247;BME280;66279;42.820;23.374;2023-11-19T09:23:25;95906.09;;;10.06;60.22
77247;BME280;66279;42.820;23.374;2023-11-19T09:25:53;95936.28;;;10.19;59.99
77247;BME280;66279;42.820;23.374;2023-11-19T09:28:18;95917.03;;;10.31;60.21
77247;BME280;66279;42.820;23.374;2023-11-19T09:30:43;95913.94;;;10.28;60.34
77247;BME280;66279;42.820;23.374;2023-11-19T09:33:09;95914.91;;;10.20;60.43
77247;BME280;66279;42.820;23.374;2023-11-19T09:35:34;95906.22;;;10.26;60.29
77247;BME280;66279;42.820;23.374;2023-11-19T09:38:00;95903.91;;;10.10;60.97
77247;BME280;66279;42.820;23.374;2023-11-19T09:40:26;95876.53;;;9.83;61.27
77247;BME280;66279;42.820;23.374;2023-11-19T09:42:51;95892.47;;;10.09;60.91
77247;BME280;66279;42.820;23.374;2023-11-19T09:45:17;95887.97;;;10.03;61.10
77247;BME280;66279;42.820;23.374;2023-11-19T09:47:46;95877.00;;;10.06;60.93
77247;BME280;66279;42.820;23.374;2023-11-19T09:50:16;95871.97;;;10.25;60.34
77247;BME280;66279;42.820;23.374;2023-11-19T09:52:44;95868.91;;;10.21;60.84
77247;BME280;66279;42.820;23.374;2023-11-19T09:55:10;95874.19;;;10.14;61.25
77247;BME280;66279;42.820;23.374;2023-11-19T09:57:38;95878.28;;;10.24;60.82
77247;BME280;66279;42.820;23.374;2023-11-19T10:00:04;95868.91;;;10.14;61.98
77247;BME280;66279;42.820;23.374;2023-11-19T10:02:34;95874.19;;;10.21;62.16
77247;BME280;66279;42.820;23.374;2023-11-19T10:05:12;95860.44;;;10.39;60.78
77247;BME280;66279;42.820;23.374;2023-11-19T10:07:38;95869.38;;;10.31;61.37
77247;BME280;66279;42.820;23.374;2023-11-19T10:10:04;95861.19;;;10.20;61.35
77247;BME280;66279;42.820;23.374;2023-11-19T10:12:30;95867.91;;;10.22;60.88
77247;BME280;66279;42.820;23.374;2023-11-19T10:14:57;95872.16;;;10.17;61.99
77247;BME280;66279;42.820;23.374;2023-11-19T10:17:33;95887.41;;;10.14;62.06
77247;BME280;66279;42.820;23.374;2023-11-19T10:19:59;95876.00;;;10.01;62.11
77247;BME280;66279;42.820;23.374;2023-11-19T10:22:25;95884.78;;;10.14;62.03
77247;BME280;66279;42.820;23.374;2023-11-19T10:24:52;95878.28;;;10.17;61.36
77247;BME280;66279;42.820;23.374;2023-11-19T10:27:17;95875.50;;;10.32;61.08
77247;BME280;66279;42.820;23.374;2023-11-19T10:29:46;95874.19;;;10.21;61.43
77247;BME280;66279;42.820;23.374;2023-11-19T10:32:12;95861.78;;;10.22;61.17
77247;BME280;66279;42.820;23.374;2023-11-19T10:34:38;95869.88;;;10.00;62.16
77247;BME280;66279;42.820;23.374;2023-11-19T10:37:05;95867.69;;;10.24;61.08
77247;BME280;66279;42.820;23.374;2023-11-19T10:39:52;95867.28;;;10.13;60.22
77247;BME280;66279;42.820;23.374;2023-11-19T10:42:19;95875.41;;;10.12;60.74
77247;BME280;66279;42.820;23.374;2023-11-19T10:44:45;95869.69;;;10.08;60.57
77247;BME280;66279;42.820;23.374;2023-11-19T10:47:11;95875.63;;;10.24;59.98
77247;BME280;66279;42.820;23.374;2023-11-19T10:49:38;95874.16;;;10.08;60.69
77247;BME280;66279;42.820;23.374;2023-11-19T10:52:05;95889.66;;;10.11;60.94
77247;BME280;66279;42.820;23.374;2023-11-19T10:54:31;95882.53;;;10.11;61.09
77247;BME280;66279;42.820;23.374;2023-11-19T10:57:02;95876.84;;;10.14;60.88
77247;BME280;66279;42.820;23.374;2023-11-19T10:59:30;95853.41;;;10.11;61.37
77247;BME280;66279;42.820;23.374;2023-11-19T11:01:56;95863.19;;;10.11;61.81
77247;BME280;66279;42.820;23.374;2023-11-19T11:04:25;95865.63;;;10.12;60.92
77247;BME280;66279;42.820;23.374;2023-11-19T11:06:54;95859.34;;;10.20;61.18
77247;BME280;66279;42.820;23.374;2023-11-19T11:09:20;95859.13;;;10.15;60.38
77247;BME280;66279;42.820;23.374;2023-11-19T11:11:47;95853.00;;;10.01;61.63
77247;BME280;66279;42.820;23.374;2023-11-19T11:14:13;95846.09;;;10.07;60.98
77247;BME280;66279;42.820;23.374;2023-11-19T11:16:43;95844.25;;;10.01;62.33
77247;BME280;66279;42.820;23.374;2023-11-19T11:19:10;95838.75;;;10.09;61.20
77247;BME280;66279;42.820;23.374;2023-11-19T11:21:37;95845.91;;;10.22;60.95
77247;BME280;66279;42.820;23.374;2023-11-19T11:38:08;95844.50;;;10.26;60.86
77247;BME280;66279;42.820;23.374;2023-11-19T11:40:34;95828.22;;;10.22;59.91
77247;BME280;66279;42.820;23.374;2023-11-19T11:43:01;95834.91;;;10.11;60.98
77247;BME280;66279;42.820;23.374;2023-11-19T11:45:37;95826.38;;;10.23;60.24
77247;BME280;66279;42.820;23.374;2023-11-19T11:50:50;95811.88;;;9.92;60.97
77247;BME280;66279;42.820;23.374;2023-11-19T11:53:17;95847.25;;;9.91;62.04
77247;BME280;66279;42.820;23.374;2023-11-19T11:58:15;95846.69;;;10.02;61.96
77247;BME280;66279;42.820;23.374;2023-11-19T12:00:42;95842.59;;;10.00;61.96
77247;BME280;66279;42.820;23.374;2023-11-19T12:03:08;95833.22;;;9.90;62.08
77247;BME280;66279;42.820;23.374;2023-11-19T12:05:44;95833.41;;;9.82;62.79
77247;BME280;66279;42.820;23.374;2023-11-19T12:08:18;95831.41;;;9.98;61.92
77247;BME280;66279;42.820;23.374;2023-11-19T12:13:12;95821.19;;;9.88;62.80
77247;BME280;66279;42.820;23.374;2023-11-19T12:18:28;95804.56;;;10.01;61.83
77247;BME280;66279;42.820;23.374;2023-11-19T12:20:55;95802.50;;;9.96;63.08
77247;BME280;66279;42.820;23.374;2023-11-19T12:23:21;95804.16;;;10.04;62.57
77247;BME280;66279;42.820;23.374;2023-11-19T12:25:47;95800.50;;;10.18;62.16
77247;BME280;66279;42.820;23.374;2023-11-19T12:28:13;95803.72;;;10.00;62.99
77247;BME280;66279;42.820;23.374;2023-11-19T12:30:39;95797.78;;;9.85;62.91
77247;BME280;66279;42.820;23.374;2023-11-19T12:33:09;95790.31;;;10.02;62.55
77247;BME280;66279;42.820;23.374;2023-11-19T12:35:42;95767.91;;;9.84;62.63
77247;BME280;66279;42.820;23.374;2023-11-19T12:38:08;95782.56;;;9.87;63.19
77247;BME280;66279;42.820;23.374;2023-11-19T12:40:43;95786.41;;;9.91;63.03
77247;BME280;66279;42.820;23.374;2023-11-19T12:43:08;95772.59;;;9.96;62.87
77247;BME280;66279;42.820;23.374;2023-11-19T12:45:35;95773.59;;;9.88;63.55
77247;BME280;66279;42.820;23.374;2023-11-19T12:48:07;95773.81;;;10.00;62.43
77247;BME280;66279;42.820;23.374;2023-11-19T12:51:05;95772.78;;;9.94;63.06
77247;BME280;66279;42.820;23.374;2023-11-19T12:53:46;95775.66;;;9.99;63.30
77247;BME280;66279;42.820;23.374;2023-11-19T12:56:12;95777.72;;;10.04;62.46
77247;BME280;66279;42.820;23.374;2023-11-19T12:58:37;95765.06;;;9.86;63.38
77247;BME280;66279;42.820;23.374;2023-11-19T13:01:06;95755.69;;;9.77;63.87
77247;BME280;66279;42.820;23.374;2023-11-19T13:03:35;95743.50;;;9.89;63.59
77247;BME280;66279;42.820;23.374;2023-11-19T13:06:05;95760.78;;;9.85;62.88
77247;BME280;66279;42.820;23.374;2023-11-19T13:11:03;95747.38;;;10.06;62.35
77247;BME280;66279;42.820;23.374;2023-11-19T13:13:29;95746.34;;;9.94;63.20
77247;BME280;66279;42.820;23.374;2023-11-19T13:16:04;95743.91;;;9.99;62.85